Time;durP1;ratioP1;P1;durP2;ratioP2;P2;SDS_P1;SDS_P2;PMS_P1;PMS_P2;Temp;Humidity;BMP_temperature;BMP_pressure;BME280_temperature;BME280_humidity;BME280_pressure;Samples;Min_cycle;Max_cycle;Signal;HPM_P1;HPM_P2
2023/05/09 00:02:25;;;;;;;7.15;6.45;;;16.70;99.90;;;;;;5007393;28;20037;-79
2023/05/09 00:04:50;;;;;;;15.52;9.45;;;16.70;99.90;;;;;;5023829;28;20052;-79
2023/05/09 00:07:16;;;;;;;7.38;6.57;;;16.70;99.90;;;;;;5008284;28;20037;-80
2023/05/09 00:09:42;;;;;;;10.43;9.32;;;16.60;99.90;;;;;;5023095;28;20071;-79
2023/05/09 00:12:08;;;;;;;12.80;9.57;;;16.70;99.90;;;;;;5008462;28;20569;-79
2023/05/09 00:14:33;;;;;;;12.05;8.45;;;16.60;99.90;;;;;;5023451;28;20113;-80
2023/05/09 00:16:59;;;;;;;9.38;8.35;;;16.60;99.90;;;;;;5005014;28;20036;-80
2023/05/09 00:19:25;;;;;;;7.65;6.85;;;16.40;99.90;;;;;;5024074;28;20052;-80
2023/05/09 00:21:50;;;;;;;8.77;7.82;;;16.40;99.90;;;;;;5008234;28;20037;-80
2023/05/09 00:24:16;;;;;;;10.43;9.32;;;16.60;99.90;;;;;;5005877;28;20443;-80
2023/05/09 00:26:42;;;;;;;9.15;6.88;;;16.30;99.90;;;;;;5007120;28;20079;-80
2023/05/09 00:29:07;;;;;;;11.40;7.35;;;16.40;99.90;;;;;;5025309;28;20128;-80
2023/05/09 00:31:33;;;;;;;10.50;7.72;;;16.30;99.90;;;;;;5040341;28;20094;-80
2023/05/09 00:33:58;;;;;;;8.50;7.65;;;16.20;99.90;;;;;;5020929;28;20030;-80
2023/05/09 00:36:24;;;;;;;13.02;9.75;;;16.20;99.90;;;;;;5007658;28;20021;-80
2023/05/09 00:38:49;;;;;;;11.25;8.73;;;16.20;99.90;;;;;;5024985;28;20021;-80
2023/05/09 00:41:15;;;;;;;13.80;12.38;;;16.20;99.90;;;;;;5022567;28;20034;-80
2023/05/09 00:43:40;;;;;;;11.32;10.13;;;16.10;99.90;;;;;;5039866;28;20048;-80
2023/05/09 00:46:06;;;;;;;9.57;8.52;;;16.00;99.90;;;;;;5040737;28;20028;-80
2023/05/09 00:48:32;;;;;;;10.48;8.82;;;16.00;99.90;;;;;;5038329;28;20044;-80
2023/05/09 00:50:57;;;;;;;11.20;9.93;;;15.90;99.90;;;;;;5023757;28;20070;-80
2023/05/09 00:53:23;;;;;;;14.73;12.10;;;15.90;99.90;;;;;;5003898;28;20491;-80
2023/05/09 00:55:49;;;;;;;11.65;10.45;;;15.80;99.90;;;;;;5040438;28;20082;-80
2023/05/09 00:58:14;;;;;;;18.50;12.70;;;15.70;99.90;;;;;;5037961;28;20035;-80
2023/05/09 01:00:40;;;;;;;17.25;11.85;;;15.80;99.90;;;;;;5025026;28;20558;-80
2023/05/09 01:03:06;;;;;;;15.15;13.13;;;15.90;99.90;;;;;;5023304;28;20052;-81
2023/05/09 01:05:55;;;;;;;13.02;10.68;;;15.70;99.90;;;;;;5042014;28;20056;-80
2023/05/09 01:08:33;;;;;;;16.17;13.05;;;15.80;99.90;;;;;;5033437;28;20037;-80
2023/05/09 01:11:05;;;;;;;12.20;9.40;;;15.80;99.90;;;;;;5041619;28;20033;-80
2023/05/09 01:13:32;;;;;;;19.02;12.05;;;15.70;99.90;;;;;;5044042;28;20044;-80
2023/05/09 01:16:00;;;;;;;14.13;11.80;;;15.70;99.90;;;;;;5043174;28;20044;-80
2023/05/09 01:18:51;;;;;;;16.00;12.85;;;15.60;99.90;;;;;;5012423;28;20033;-78
2023/05/09 01:21:20;;;;;;;15.00;12.55;;;15.50;99.90;;;;;;5025489;28;20049;-80
2023/05/09 01:24:24;;;;;;;11.10;9.95;;;15.40;99.90;;;;;;5028450;28;20060;-80
2023/05/09 01:27:11;;;;;;;16.50;11.55;;;15.60;99.90;;;;;;5026503;28;20036;-80
2023/05/09 01:29:55;;;;;;;;;;;15.60;99.90;;;;;;5041683;28;20040;-80
2023/05/09 01:32:26;;;;;;;12.27;10.80;;;15.60;99.90;;;;;;5039624;28;20384;-80
2023/05/09 01:34:53;;;;;;;14.65;12.10;;;15.50;99.90;;;;;;5027417;28;20116;-80
2023/05/09 01:37:21;;;;;;;15.70;13.40;;;15.50;99.90;;;;;;5011459;28;20033;-80
2023/05/09 01:39:50;;;;;;;12.68;10.85;;;15.50;99.90;;;;;;5011364;28;20030;-80
2023/05/09 01:42:16;;;;;;;13.75;11.10;;;15.40;99.90;;;;;;5026404;28;20504;-80
2023/05/09 01:44:42;;;;;;;15.32;12.57;;;15.50;99.90;;;;;;5027394;28;20037;-80
2023/05/09 01:47:07;;;;;;;17.50;13.80;;;15.50;99.90;;;;;;5009903;28;20534;-80
2023/05/09 01:49:34;;;;;;;16.25;12.45;;;15.40;99.90;;;;;;5012260;28;20037;-80
2023/05/09 01:52:05;;;;;;;13.43;11.73;;;15.40;99.90;;;;;;5027923;28;20175;-80
2023/05/09 01:54:30;;;;;;;17.08;13.98;;;15.40;99.90;;;;;;5031092;28;20025;-80
2023/05/09 01:56:56;;;;;;;15.68;11.80;;;15.30;99.90;;;;;;5011579;28;20068;-80
2023/05/09 01:59:22;;;;;;;15.43;11.77;;;15.30;99.90;;;;;;5028736;28;20475;-80
2023/05/09 02:01:47;;;;;;;16.75;14.95;;;15.30;99.90;;;;;;5024286;28;20105;-80
2023/05/09 02:04:13;;;;;;;19.08;15.15;;;15.30;99.90;;;;;;5026950;28;20033;-80
2023/05/09 02:06:39;;;;;;;14.10;11.80;;;15.20;99.90;;;;;;5028277;28;20029;-80
2023/05/09 02:09:05;;;;;;;17.40;12.88;;;15.10;99.90;;;;;;5008634;28;20370;-80
2023/05/09 02:11:30;;;;;;;15.52;12.45;;;15.20;99.90;;;;;;5025784;28;20037;-80
2023/05/09 02:13:56;;;;;;;15.48;13.02;;;15.20;99.90;;;;;;5027296;28;20047;-80
2023/05/09 02:16:21;;;;;;;14.57;13.02;;;15.30;99.90;;;;;;5011737;28;20033;-80
2023/05/09 02:18:47;;;;;;;23.67;14.40;;;15.20;99.90;;;;;;5044614;28;20882;-80
2023/05/09 02:21:13;;;;;;;19.10;14.95;;;15.20;99.90;;;;;;5043219;28;20042;-79
2023/05/09 02:23:38;;;;;;;14.13;12.50;;;15.10;99.90;;;;;;5027559;28;20038;-80
2023/05/09 02:26:04;;;;;;;14.18;11.32;;;15.10;99.90;;;;;;5028812;28;20037;-80
2023/05/09 02:28:29;;;;;;;15.93;12.77;;;15.00;99.90;;;;;;5027833;28;20029;-79
2023/05/09 02:30:57;;;;;;;19.17;13.30;;;15.10;99.90;;;;;;5027051;28;20029;-80
2023/05/09 02:33:23;;;;;;;18.40;13.50;;;15.10;99.90;;;;;;5012240;28;20033;-80
2023/05/09 02:35:48;;;;;;;17.00;13.30;;;15.10;99.90;;;;;;5011635;28;20040;-83
2023/05/09 02:38:14;;;;;;;13.65;12.20;;;15.00;99.90;;;;;;5027456;28;20445;-82
2023/05/09 02:40:40;;;;;;;14.35;11.88;;;15.00;99.90;;;;;;5026948;28;20428;-82
2023/05/09 02:43:05;;;;;;;20.23;15.85;;;15.10;99.90;;;;;;5008071;28;20087;-82
2023/05/09 02:45:31;;;;;;;19.85;16.20;;;15.00;99.90;;;;;;5026738;28;20095;-81
2023/05/09 02:47:57;;;;;;;9.82;8.82;;;15.00;99.90;;;;;;5025925;28;20474;-82
2023/05/09 02:50:22;;;;;;;17.95;15.20;;;15.10;99.90;;;;;;5026896;28;20029;-82
2023/05/09 02:52:48;;;;;;;16.20;11.05;;;15.20;99.90;;;;;;5010186;28;20037;-82
2023/05/09 02:55:13;;;;;;;13.13;10.85;;;15.20;99.90;;;;;;5043525;28;20029;-82
2023/05/09 02:57:39;;;;;;;15.85;11.63;;;15.20;99.90;;;;;;5008402;28;20029;-81
2023/05/09 03:00:08;;;;;;;17.80;13.90;;;15.40;99.90;;;;;;5027141;28;20025;-82
2023/05/09 03:02:35;;;;;;;14.98;12.27;;;15.20;99.90;;;;;;5038118;28;20029;-82
2023/05/09 03:05:00;;;;;;;13.70;10.23;;;15.20;99.90;;;;;;5042483;28;20036;-81
2023/05/09 03:07:26;;;;;;;15.95;13.57;;;15.20;99.90;;;;;;5009056;28;20044;-83
2023/05/09 03:09:51;;;;;;;20.90;15.85;;;15.30;99.90;;;;;;5027189;28;20037;-82
2023/05/09 03:12:17;;;;;;;19.55;15.45;;;15.30;99.90;;;;;;5026740;28;20428;-82
2023/05/09 03:14:42;;;;;;;17.08;12.02;;;15.40;99.90;;;;;;5008981;28;20037;-82
2023/05/09 03:17:08;;;;;;;18.17;15.25;;;15.40;99.90;;;;;;5040446;28;20033;-82
2023/05/09 03:19:33;;;;;;;20.13;16.00;;;15.40;99.90;;;;;;5026610;28;20048;-82
2023/05/09 03:21:59;;;;;;;17.30;13.55;;;15.50;99.90;;;;;;5025972;28;20029;-82
2023/05/09 03:24:27;;;;;;;13.07;11.15;;;15.50;99.90;;;;;;5025470;28;20116;-82
2023/05/09 03:26:52;;;;;;;13.60;9.48;;;15.40;99.90;;;;;;5027385;28;20401;-82
2023/05/09 03:29:18;;;;;;;17.58;13.65;;;15.50;99.90;;;;;;5003261;28;20031;-82
2023/05/09 03:31:43;;;;;;;21.17;15.10;;;15.50;99.90;;;;;;5026227;28;20179;-82
2023/05/09 03:34:13;;;;;;;18.80;13.05;;;15.50;99.90;;;;;;5024137;28;20116;-81
2023/05/09 03:36:42;;;;;;;17.25;13.07;;;15.50;99.90;;;;;;5026498;28;20040;-82
2023/05/09 03:39:08;;;;;;;25.02;17.10;;;15.50;99.90;;;;;;5026965;28;20481;-82
2023/05/09 03:41:35;;;;;;;17.23;13.70;;;15.50;99.90;;;;;;5007511;28;20108;-83
2023/05/09 03:44:00;;;;;;;17.23;12.40;;;15.60;99.90;;;;;;5039566;28;20836;-83
2023/05/09 03:46:26;;;;;;;18.05;13.50;;;15.50;99.90;;;;;;5025738;28;20104;-83
2023/05/09 03:48:52;;;;;;;14.85;11.80;;;15.60;99.90;;;;;;5022065;28;20051;-83
2023/05/09 03:51:17;;;;;;;16.45;12.25;;;15.60;99.90;;;;;;5008222;28;20033;-83
2023/05/09 03:53:45;;;;;;;17.30;12.60;;;15.70;99.90;;;;;;5024567;28;20033;-82
2023/05/09 03:56:11;;;;;;;17.17;12.48;;;15.60;99.90;;;;;;5040210;28;20603;-82
2023/05/09 03:58:37;;;;;;;22.48;15.30;;;15.70;99.90;;;;;;5025133;28;20033;-82
2023/05/09 04:01:02;;;;;;;16.50;13.55;;;15.70;99.90;;;;;;5023887;28;20029;-82
2023/05/09 04:03:28;;;;;;;21.92;15.43;;;15.70;99.90;;;;;;5020611;28;20041;-82
2023/05/09 04:05:53;;;;;;;31.60;19.45;;;15.70;99.90;;;;;;5021233;28;20048;-82
2023/05/09 04:08:19;;;;;;;29.73;20.38;;;15.60;99.90;;;;;;5023420;28;20445;-82
2023/05/09 04:10:45;;;;;;;25.40;16.80;;;15.70;99.90;;;;;;5025255;28;20059;-82
2023/05/09 04:13:10;;;;;;;25.40;17.30;;;15.70;99.90;;;;;;5005807;28;20068;-82
2023/05/09 04:15:36;;;;;;;23.20;15.82;;;15.70;99.90;;;;;;5034157;28;20030;-81
2023/05/09 04:18:02;;;;;;;26.75;20.40;;;15.70;99.90;;;;;;5037597;28;20635;-82
2023/05/09 04:20:28;;;;;;;21.15;15.63;;;15.70;99.90;;;;;;5025383;28;20139;-82
2023/05/09 04:22:53;;;;;;;18.17;13.35;;;15.70;99.90;;;;;;5019564;28;20037;-82
2023/05/09 04:25:19;;;;;;;22.30;16.27;;;15.70;99.90;;;;;;5040428;28;20032;-82
2023/05/09 04:27:45;;;;;;;27.27;17.33;;;15.80;99.90;;;;;;5024863;28;20033;-82
2023/05/09 04:30:11;;;;;;;24.33;16.15;;;15.80;99.90;;;;;;5026887;28;20025;-81
2023/05/09 04:32:37;;;;;;;28.30;19.35;;;15.80;99.90;;;;;;5037347;28;20051;-82
2023/05/09 04:35:04;;;;;;;22.63;15.55;;;15.80;99.90;;;;;;5025196;28;20492;-81
2023/05/09 04:37:31;;;;;;;23.40;16.30;;;15.80;99.90;;;;;;5021183;28;20682;-81
2023/05/09 04:39:57;;;;;;;35.25;23.75;;;15.80;99.90;;;;;;5006830;28;20040;-81
2023/05/09 04:42:22;;;;;;;31.02;20.52;;;15.80;99.90;;;;;;5040498;28;20033;-82
2023/05/09 04:44:48;;;;;;;30.98;20.42;;;15.80;99.90;;;;;;5023683;28;20123;-82
2023/05/09 04:47:14;;;;;;;22.73;16.77;;;15.70;99.90;;;;;;5040037;28;20037;-81
2023/05/09 04:49:39;;;;;;;22.67;16.95;;;15.80;99.90;;;;;;5025548;28;20124;-81
2023/05/09 04:52:05;;;;;;;31.10;19.08;;;15.70;99.90;;;;;;5023067;28;20493;-82
2023/05/09 04:54:31;;;;;;;31.00;21.00;;;15.80;99.90;;;;;;5022829;28;20040;-82
2023/05/09 04:56:57;;;;;;;34.58;22.27;;;15.80;99.90;;;;;;5023080;28;20037;-82
2023/05/09 04:59:22;;;;;;;29.55;20.98;;;15.80;99.90;;;;;;5023397;28;20480;-81
2023/05/09 05:01:48;;;;;;;25.15;18.38;;;15.70;99.90;;;;;;5024274;28;20021;-81
2023/05/09 05:04:16;;;;;;;26.42;19.45;;;15.80;99.90;;;;;;5023073;28;20032;-82
2023/05/09 05:06:41;;;;;;;28.42;19.35;;;15.80;99.90;;;;;;5024939;28;20017;-83
2023/05/09 05:09:07;;;;;;;25.67;18.83;;;15.80;99.90;;;;;;5025613;28;20086;-83
2023/05/09 05:11:32;;;;;;;23.38;14.85;;;15.80;99.90;;;;;;5024008;28;20037;-83
2023/05/09 05:13:58;;;;;;;29.80;21.27;;;15.80;99.90;;;;;;5038831;28;20159;-84
2023/05/09 05:16:23;;;;;;;19.10;14.85;;;16.00;99.90;;;;;;5008482;28;20049;-84
2023/05/09 05:18:49;;;;;;;26.88;20.23;;;15.90;99.90;;;;;;5025031;28;20032;-83
2023/05/09 05:21:15;;;;;;;21.67;16.45;;;15.90;99.90;;;;;;5024357;28;20037;-83
2023/05/09 05:23:40;;;;;;;16.00;12.90;;;15.90;99.90;;;;;;5007280;28;20037;-83
2023/05/09 05:26:06;;;;;;;17.85;13.73;;;16.00;99.90;;;;;;5007847;28;20102;-82
2023/05/09 05:28:31;;;;;;;17.83;13.13;;;16.10;99.90;;;;;;5022780;28;20041;-83
2023/05/09 05:30:57;;;;;;;27.77;19.55;;;16.20;99.90;;;;;;5023027;28;20048;-80
2023/05/09 05:33:23;;;;;;;17.48;13.52;;;16.10;99.90;;;;;;5004642;28;20116;-80
2023/05/09 05:35:48;;;;;;;19.55;15.13;;;16.20;99.90;;;;;;5038795;28;20064;-79
2023/05/09 05:38:14;;;;;;;20.67;14.50;;;16.20;99.90;;;;;;5023152;28;20036;-80
2023/05/09 05:40:39;;;;;;;32.25;21.17;;;16.30;99.90;;;;;;5041539;28;20029;-80
2023/05/09 05:43:05;;;;;;;25.00;18.23;;;16.30;99.90;;;;;;5023309;28;20037;-80
2023/05/09 05:45:30;;;;;;;20.10;14.40;;;16.30;99.90;;;;;;5024335;28;20040;-80
2023/05/09 05:47:56;;;;;;;19.83;14.63;;;16.40;99.90;;;;;;5022393;28;20440;-79
2023/05/09 05:50:22;;;;;;;25.60;18.25;;;16.50;99.90;;;;;;5006739;28;20172;-79
2023/05/09 05:52:47;;;;;;;21.05;13.88;;;16.50;99.90;;;;;;5025324;28;20033;-79
2023/05/09 05:55:13;;;;;;;22.50;14.85;;;16.60;99.90;;;;;;5041852;28;20077;-79
2023/05/09 05:57:39;;;;;;;19.75;13.10;;;16.60;99.90;;;;;;5029178;28;20033;-79
2023/05/09 06:00:09;;;;;;;20.20;15.77;;;16.70;99.90;;;;;;5011425;28;20144;-78
2023/05/09 06:02:35;;;;;;;18.98;13.77;;;16.80;99.90;;;;;;5026938;28;20394;-79
2023/05/09 06:05:00;;;;;;;18.65;13.73;;;16.80;99.90;;;;;;5011994;28;20036;-78
2023/05/09 06:07:26;;;;;;;22.27;16.88;;;16.90;99.90;;;;;;5026433;28;20033;-78
2023/05/09 06:09:51;;;;;;;21.73;16.83;;;16.90;99.90;;;;;;5026651;28;20035;-80
2023/05/09 06:12:17;;;;;;;22.45;15.88;;;17.10;99.90;;;;;;5027864;28;20037;-80
2023/05/09 06:14:43;;;;;;;19.75;12.98;;;17.10;99.90;;;;;;5029914;28;20031;-80
2023/05/09 06:17:08;;;;;;;24.88;17.13;;;17.20;99.90;;;;;;5024556;28;20043;-80
2023/05/09 06:19:34;;;;;;;15.27;12.90;;;17.20;99.90;;;;;;5029038;28;21054;-79
2023/05/09 06:22:00;;;;;;;23.88;17.13;;;17.30;99.90;;;;;;5014766;28;20452;-81
2023/05/09 06:24:25;;;;;;;20.80;14.20;;;17.40;99.90;;;;;;5032123;28;20101;-81
2023/05/09 06:26:51;;;;;;;17.00;14.65;;;17.50;99.90;;;;;;5048122;28;20095;-80
2023/05/09 06:29:16;;;;;;;17.58;14.05;;;17.50;99.90;;;;;;5030768;28;20025;-80
2023/05/09 06:31:42;;;;;;;18.45;13.70;;;17.80;99.90;;;;;;5045395;28;20021;-80
2023/05/09 06:34:07;;;;;;;19.08;13.82;;;17.90;99.90;;;;;;5049760;28;20094;-80
2023/05/09 06:36:33;;;;;;;18.98;14.00;;;17.90;99.90;;;;;;5031910;28;20500;-80
2023/05/09 06:38:59;;;;;;;17.38;13.95;;;18.00;99.90;;;;;;5016303;28;20051;-79
2023/05/09 06:41:25;;;;;;;19.02;13.73;;;18.10;99.90;;;;;;5011303;28;20037;-79
2023/05/09 06:43:51;;;;;;;17.88;14.10;;;18.30;99.90;;;;;;5015005;28;20044;-78
2023/05/09 06:46:16;;;;;;;20.27;14.32;;;18.40;99.90;;;;;;5030217;28;20075;-79
2023/05/09 06:48:42;;;;;;;15.48;12.57;;;18.60;99.90;;;;;;5033506;28;20033;-77
2023/05/09 06:51:08;;;;;;;20.30;12.02;;;18.90;99.90;;;;;;5031372;28;20033;-79
2023/05/09 06:53:33;;;;;;;15.55;11.57;;;18.90;99.90;;;;;;5032865;28;20060;-79
2023/05/09 06:55:59;;;;;;;17.92;12.95;;;19.20;99.90;;;;;;5032069;28;20064;-79
2023/05/09 06:58:26;;;;;;;15.52;12.45;;;19.20;99.90;;;;;;5048992;28;20063;-79
2023/05/09 07:00:51;;;;;;;14.23;10.80;;;19.30;99.90;;;;;;5036919;28;20085;-79
2023/05/09 07:03:17;;;;;;;17.38;10.90;;;19.30;99.90;;;;;;5011736;28;20120;-79
2023/05/09 07:05:43;;;;;;;13.50;11.63;;;19.40;99.90;;;;;;5027865;28;20049;-79
2023/05/09 07:08:08;;;;;;;13.32;9.90;;;19.90;99.90;;;;;;5016860;28;20040;-79
2023/05/09 07:10:34;;;;;;;17.48;11.23;;;19.90;99.90;;;;;;5030633;28;20070;-79
2023/05/09 07:12:59;;;;;;;14.45;11.23;;;19.80;99.90;;;;;;5033641;28;20092;-79
2023/05/09 07:15:25;;;;;;;13.45;9.40;;;19.90;99.90;;;;;;5047419;28;20033;-78
2023/05/09 07:17:51;;;;;;;14.82;10.00;;;20.00;99.90;;;;;;5047729;28;20032;-79
2023/05/09 07:20:17;;;;;;;13.45;10.35;;;20.00;99.90;;;;;;5032725;28;20040;-79
2023/05/09 07:22:42;;;;;;;12.43;10.75;;;19.90;99.90;;;;;;5033915;28;20025;-80
2023/05/09 07:25:09;;;;;;;10.30;9.18;;;19.90;99.90;;;;;;5048219;28;20102;-79
2023/05/09 07:27:35;;;;;;;13.27;9.18;;;20.20;99.90;;;;;;5027182;28;20034;-78
2023/05/09 07:30:02;;;;;;;11.23;9.52;;;20.40;99.90;;;;;;5028875;28;20508;-79
2023/05/09 07:32:28;;;;;;;11.02;7.65;;;20.30;99.90;;;;;;5028145;28;20135;-78
2023/05/09 07:34:53;;;;;;;13.55;10.52;;;20.50;99.90;;;;;;5029720;28;20108;-78
2023/05/09 07:37:19;;;;;;;10.88;9.57;;;20.50;99.90;;;;;;5021920;28;20777;-78
2023/05/09 07:39:46;;;;;;;10.13;9.10;;;20.80;99.90;;;;;;5023594;28;20021;-79
2023/05/09 07:42:12;;;;;;;11.05;9.05;;;21.00;99.90;;;;;;5013977;28;20044;-79
2023/05/09 07:44:38;;;;;;;10.73;9.48;;;21.00;99.90;;;;;;5029703;28;20512;-78
2023/05/09 07:47:04;;;;;;;10.25;8.05;;;21.30;99.90;;;;;;5030260;28;20029;-79
2023/05/09 07:49:32;;;;;;;11.00;8.45;;;21.30;99.90;;;;;;5040618;28;20025;-78
2023/05/09 07:51:58;;;;;;;9.73;7.13;;;21.60;99.90;;;;;;5010832;28;20090;-79
2023/05/09 07:54:23;;;;;;;10.15;8.43;;;21.80;99.90;;;;;;5026436;28;20985;-78
2023/05/09 07:56:49;;;;;;;9.35;7.95;;;22.20;99.90;;;;;;5013410;28;20051;-78
2023/05/09 07:59:15;;;;;;;8.75;7.82;;;22.70;99.90;;;;;;5013353;28;20422;-79
2023/05/09 08:01:41;;;;;;;10.40;7.18;;;22.70;99.90;;;;;;5039895;28;20488;-80
2023/05/09 08:04:07;;;;;;;7.15;6.45;;;22.80;99.90;;;;;;5026536;28;20053;-79
2023/05/09 08:06:33;;;;;;;7.68;6.47;;;22.90;99.90;;;;;;5041901;28;20436;-79
2023/05/09 08:08:59;;;;;;;12.35;7.13;;;22.70;99.90;;;;;;5028992;28;20070;-79
2023/05/09 08:11:25;;;;;;;8.77;6.13;;;22.30;99.90;;;;;;5008899;28;20037;-78
2023/05/09 08:13:50;;;;;;;8.82;5.95;;;22.30;99.90;;;;;;5011882;28;20116;-78
2023/05/09 08:16:16;;;;;;;6.40;5.78;;;22.50;99.90;;;;;;5012707;28;20032;-78
2023/05/09 08:18:42;;;;;;;10.32;6.65;;;22.40;99.90;;;;;;5011665;28;20040;-79
2023/05/09 08:21:08;;;;;;;6.40;5.25;;;22.30;99.90;;;;;;5010504;28;20443;-79
2023/05/09 08:23:34;;;;;;;6.93;5.10;;;22.50;99.90;;;;;;5040370;28;20052;-79
2023/05/09 08:25:59;;;;;;;5.43;4.93;;;22.50;99.90;;;;;;5011586;28;20488;-79
2023/05/09 08:28:27;;;;;;;7.65;5.72;;;22.60;99.90;;;;;;5026877;28;20068;-79
2023/05/09 08:30:53;;;;;;;7.03;6.28;;;23.00;99.90;;;;;;5041225;28;20047;-79
2023/05/09 08:33:18;;;;;;;6.50;5.05;;;22.90;99.90;;;;;;5009132;28;20033;-79
2023/05/09 08:35:44;;;;;;;6.80;5.90;;;22.90;99.90;;;;;;5026546;28;20033;-79
2023/05/09 08:38:10;;;;;;;7.75;5.35;;;23.20;99.90;;;;;;5008893;28;20056;-79
2023/05/09 08:40:39;;;;;;;6.20;5.38;;;22.90;99.90;;;;;;5011702;28;20493;-79
2023/05/09 08:43:05;;;;;;;6.15;4.20;;;23.00;99.90;;;;;;5010914;28;20090;-79
2023/05/09 08:45:31;;;;;;;5.82;5.15;;;22.80;99.90;;;;;;5024990;28;20120;-79
2023/05/09 08:47:56;;;;;;;5.30;4.57;;;22.90;99.90;;;;;;5008607;28;20052;-78
2023/05/09 08:50:22;;;;;;;5.20;4.68;;;22.80;99.90;;;;;;5021108;28;20025;-79
2023/05/09 08:52:47;;;;;;;4.72;4.32;;;22.90;99.90;;;;;;5022877;28;20423;-79
2023/05/09 08:55:13;;;;;;;4.38;3.97;;;23.30;99.90;;;;;;5005618;28;20033;-79
2023/05/09 08:57:39;;;;;;;5.57;4.00;;;23.20;99.90;;;;;;5026424;28;20480;-79
2023/05/09 09:00:05;;;;;;;4.28;3.88;;;23.30;99.90;;;;;;5009438;28;20021;-80
2023/05/09 09:02:31;;;;;;;4.50;3.47;;;23.90;99.90;;;;;;5012770;28;20036;-80
2023/05/09 09:04:57;;;;;;;3.67;3.38;;;23.40;99.90;;;;;;5011210;28;20083;-80
2023/05/09 09:07:22;;;;;;;6.18;3.95;;;23.80;99.90;;;;;;5009494;28;20038;-80
2023/05/09 09:09:48;;;;;;;4.40;4.00;;;24.50;99.90;;;;;;5007339;28;20029;-80
2023/05/09 09:12:15;;;;;;;4.68;4.25;;;24.50;99.80;;;;;;5010592;28;20035;-79
2023/05/09 09:14:43;;;;;;;5.10;4.57;;;24.40;99.90;;;;;;5012370;28;20104;-79
2023/05/09 09:17:09;;;;;;;5.03;4.53;;;24.20;99.00;;;;;;5009528;28;20029;-79
2023/05/09 09:19:34;;;;;;;11.23;5.20;;;23.70;98.80;;;;;;5028652;28;20029;-79
2023/05/09 09:22:03;;;;;;;4.60;4.20;;;23.60;99.10;;;;;;5012903;28;20029;-79
2023/05/09 09:24:30;;;;;;;4.85;4.40;;;24.00;99.90;;;;;;5009893;28;20087;-79
2023/05/09 09:26:55;;;;;;;5.55;5.05;;;23.90;98.50;;;;;;5029384;28;20073;-78
2023/05/09 09:29:21;;;;;;;6.47;4.55;;;24.00;98.80;;;;;;5027564;28;20097;-79
2023/05/09 09:31:51;;;;;;;5.90;4.18;;;24.50;98.50;;;;;;5029441;28;20456;-79
2023/05/09 09:34:21;;;;;;;7.72;4.75;;;24.70;98.40;;;;;;5051427;28;20025;-78
2023/05/09 09:36:47;;;;;;;5.45;4.53;;;24.90;98.70;;;;;;5017715;28;20064;-79
2023/05/09 09:39:12;;;;;;;5.50;4.22;;;25.00;97.80;;;;;;5028324;28;20060;-80
2023/05/09 09:41:38;;;;;;;4.57;4.18;;;25.10;98.50;;;;;;5030095;28;20434;-77
2023/05/09 09:44:08;;;;;;;6.43;4.50;;;25.50;99.00;;;;;;5030986;28;20048;-80
2023/05/09 09:46:46;;;;;;;5.05;4.32;;;26.00;99.40;;;;;;5047136;28;20030;-79
2023/05/09 09:49:12;;;;;;;5.65;5.20;;;25.90;96.30;;;;;;5045348;28;20037;-79
2023/05/09 09:51:39;;;;;;;4.20;3.80;;;25.50;97.30;;;;;;5046383;28;20037;-79
2023/05/09 09:54:08;;;;;;;4.53;4.13;;;25.90;98.50;;;;;;5028155;28;20044;-79
2023/05/09 09:56:45;;;;;;;4.88;4.30;;;26.30;95.00;;;;;;5032904;28;20033;-79
2023/05/09 09:59:20;;;;;;;4.45;4.05;;;26.60;97.90;;;;;;5030961;28;20112;-79
2023/05/09 10:02:00;;;;;;;4.63;3.92;;;26.90;96.40;;;;;;5032151;28;20025;-79
2023/05/09 10:04:35;;;;;;;3.78;3.47;;;26.90;97.70;;;;;;5014391;28;20080;-79
2023/05/09 10:07:04;;;;;;;3.80;3.50;;;26.90;94.10;;;;;;5047790;28;20033;-78
2023/05/09 10:09:30;;;;;;;4.93;3.80;;;27.60;96.40;;;;;;5015064;28;20115;-78
2023/05/09 10:11:56;;;;;;;3.92;3.58;;;27.50;94.00;;;;;;5029002;28;20041;-79
2023/05/09 10:14:23;;;;;;;3.88;3.58;;;27.60;94.70;;;;;;5010870;28;20017;-79
2023/05/09 10:16:50;;;;;;;4.32;3.17;;;28.00;94.50;;;;;;5010574;28;20022;-79
2023/05/09 10:19:19;;;;;;;3.90;3.50;;;28.10;95.80;;;;;;5027640;28;20059;-78
2023/05/09 10:21:48;;;;;;;7.18;3.60;;;27.80;91.20;;;;;;5026244;28;20030;-78
2023/05/09 10:24:15;;;;;;;5.38;3.33;;;27.80;90.80;;;;;;5024326;28;20051;-78
2023/05/09 10:26:41;;;;;;;3.33;3.03;;;27.60;92.00;;;;;;5028086;28;20380;-78
2023/05/09 10:29:07;;;;;;;3.55;3.25;;;27.40;90.20;;;;;;5010876;28;20041;-78
2023/05/09 10:31:33;;;;;;;3.50;3.20;;;27.50;90.60;;;;;;5010554;28;20448;-79
2023/05/09 10:33:59;;;;;;;4.90;3.38;;;27.90;92.30;;;;;;5027077;28;20033;-78
2023/05/09 10:36:25;;;;;;;3.75;3.15;;;27.90;92.30;;;;;;5009979;28;20092;-78
2023/05/09 10:38:52;;;;;;;7.38;4.90;;;28.30;92.80;;;;;;5025595;28;20345;-78
2023/05/09 10:41:18;;;;;;;3.28;2.97;;;27.80;90.60;;;;;;5038546;28;20029;-78
2023/05/09 10:43:44;;;;;;;7.30;3.67;;;28.30;92.20;;;;;;5027405;28;20082;-79
2023/05/09 10:46:10;;;;;;;3.75;2.60;;;28.50;91.70;;;;;;5026241;28;20049;-78
2023/05/09 10:48:36;;;;;;;3.65;2.53;;;28.00;90.90;;;;;;5024601;28;20131;-78
2023/05/09 10:51:02;;;;;;;4.82;3.45;;;28.60;90.10;;;;;;5007667;28;20619;-78
2023/05/09 10:53:48;;;;;;;5.13;2.53;;;28.40;91.80;;;;;;5011853;28;20030;-79
2023/05/09 10:56:32;;;;;;;2.72;2.53;;;28.30;92.10;;;;;;5041926;28;20037;-78
2023/05/09 10:58:58;;;;;;;4.20;2.67;;;28.00;89.20;;;;;;5039386;28;20072;-78
2023/05/09 11:01:35;;;;;;;7.53;2.70;;;28.70;88.30;;;;;;5026719;28;20163;-78
2023/05/09 11:04:07;;;;;;;3.10;2.38;;;28.60;90.60;;;;;;5047388;28;20057;-78
2023/05/09 11:06:40;;;;;;;3.78;2.20;;;28.50;87.10;;;;;;5031370;28;20102;-78
2023/05/09 11:09:27;;;;;;;3.85;2.50;;;29.20;88.80;;;;;;5038602;28;20056;-78
2023/05/09 11:11:57;;;;;;;2.90;2.55;;;28.80;85.50;;;;;;5031146;28;20041;-78
2023/05/09 11:14:36;;;;;;;3.10;2.70;;;27.90;85.40;;;;;;5027949;28;20034;-76
2023/05/09 11:17:12;;;;;;;3.00;1.95;;;28.50;89.70;;;;;;5025734;28;20041;-77
2023/05/09 11:19:59;;;;;;;2.63;2.20;;;29.10;90.10;;;;;;4344003;28;10001242;-78
2023/05/09 11:22:31;;;;;;;3.05;2.22;;;28.60;83.70;;;;;;5024187;28;20033;-77
2023/05/09 11:25:04;;;;;;;4.05;2.47;;;28.20;89.30;;;;;;5007999;28;20109;-79
2023/05/09 11:27:42;;;;;;;3.47;2.35;;;28.70;86.00;;;;;;5040163;28;20042;-78
2023/05/09 11:30:09;;;;;;;2.65;2.00;;;28.60;83.50;;;;;;5026550;28;20143;-78
2023/05/09 11:32:53;;;;;;;2.78;1.80;;;28.80;82.60;;;;;;5038760;28;20025;-77
2023/05/09 11:35:20;;;;;;;3.95;1.70;;;28.70;81.20;;;;;;5027934;28;20497;-77
2023/05/09 11:37:45;;;;;;;1.60;1.48;;;28.80;84.70;;;;;;5023456;28;20422;-77
2023/05/09 11:40:12;;;;;;;4.63;1.70;;;28.50;81.00;;;;;;5045609;28;20029;-77
2023/05/09 11:42:43;;;;;;;4.40;1.90;;;28.30;83.50;;;;;;5024366;28;20029;-77
2023/05/09 11:45:10;;;;;;;3.85;1.67;;;28.50;86.60;;;;;;5028674;28;20488;-77
2023/05/09 11:47:36;;;;;;;1.85;1.70;;;28.30;79.00;;;;;;5026553;28;20056;-78
2023/05/09 11:50:02;;;;;;;1.70;1.60;;;28.70;79.40;;;;;;5025482;28;20056;-77
2023/05/09 11:52:31;;;;;;;2.75;2.00;;;29.20;85.40;;;;;;5007471;28;20029;-77
2023/05/09 11:54:57;;;;;;;1.95;1.67;;;29.90;81.80;;;;;;5041290;28;20025;-77
2023/05/09 11:57:22;;;;;;;1.52;1.38;;;28.80;79.20;;;;;;5014483;28;20070;-77
2023/05/09 11:59:48;;;;;;;2.17;1.88;;;29.40;83.00;;;;;;5037125;28;20115;-78
2023/05/09 12:02:14;;;;;;;3.33;1.45;;;29.90;81.20;;;;;;5018329;28;20021;-77
2023/05/09 12:04:39;;;;;;;3.22;1.90;;;29.50;79.20;;;;;;5032544;28;20120;-76
2023/05/09 12:07:05;;;;;;;2.90;1.55;;;29.60;84.50;;;;;;5018895;28;20097;-76
2023/05/09 12:09:31;;;;;;;2.03;1.50;;;29.90;81.40;;;;;;5037630;28;20025;-76
2023/05/09 12:11:58;;;;;;;1.60;1.50;;;30.00;82.80;;;;;;5030411;28;20040;-78
2023/05/09 12:14:30;;;;;;;4.03;2.00;;;29.60;76.40;;;;;;5025939;28;20443;-79
2023/05/09 12:16:56;;;;;;;3.55;1.60;;;29.50;78.10;;;;;;5007293;28;20029;-78
2023/05/09 12:19:23;;;;;;;2.30;1.50;;;30.20;76.50;;;;;;5010193;28;20036;-77
2023/05/09 12:21:53;;;;;;;2.45;1.70;;;30.50;80.90;;;;;;5035194;28;20047;-77
2023/05/09 12:24:20;;;;;;;1.73;1.40;;;30.30;81.00;;;;;;5034394;28;20116;-77
2023/05/09 12:26:47;;;;;;;1.90;1.70;;;30.30;79.30;;;;;;5048760;28;20041;-78
2023/05/09 12:29:12;;;;;;;3.28;1.80;;;30.80;76.70;;;;;;5050460;28;20038;-78
2023/05/09 12:31:38;;;;;;;3.25;1.85;;;30.50;77.90;;;;;;5034023;28;20114;-78
2023/05/09 12:34:03;;;;;;;2.17;1.52;;;30.20;78.70;;;;;;5031278;28;20056;-77
2023/05/09 12:36:33;;;;;;;4.20;2.00;;;30.80;75.00;;;;;;5029484;28;20032;-77